sensor_id;sensor_type;location;lat;lon;timestamp;temperature;humidity
40516;DHT22;26216;53.724;9.898;2023-03-09T00:02:10;3.10;97.60
40516;DHT22;26216;53.724;9.898;2023-03-09T00:04:36;3.10;97.60
40516;DHT22;26216;53.724;9.898;2023-03-09T00:07:02;3.00;97.70
40516;DHT22;26216;53.724;9.898;2023-03-09T00:09:28;3.00;97.60
40516;DHT22;26216;53.724;9.898;2023-03-09T00:11:54;3.00;97.60
40516;DHT22;26216;53.724;9.898;2023-03-09T00:14:20;3.00;97.70
40516;DHT22;26216;53.724;9.898;2023-03-09T00:16:50;3.00;97.60
40516;DHT22;26216;53.724;9.898;2023-03-09T00:19:16;3.00;97.60
40516;DHT22;26216;53.724;9.898;2023-03-09T00:21:47;3.00;97.60
40516;DHT22;26216;53.724;9.898;2023-03-09T00:24:19;3.00;97.70
40516;DHT22;26216;53.724;9.898;2023-03-09T00:26:51;3.00;97.70
40516;DHT22;26216;53.724;9.898;2023-03-09T00:29:17;3.00;97.70
40516;DHT22;26216;53.724;9.898;2023-03-09T00:31:43;3.00;97.80
40516;DHT22;26216;53.724;9.898;2023-03-09T00:34:10;3.00;97.60
40516;DHT22;26216;53.724;9.898;2023-03-09T00:36:36;3.00;97.80
40516;DHT22;26216;53.724;9.898;2023-03-09T00:39:03;2.90;97.80
40516;DHT22;26216;53.724;9.898;2023-03-09T00:41:29;2.90;97.70
40516;DHT22;26216;53.724;9.898;2023-03-09T00:44:02;2.90;97.80
40516;DHT22;26216;53.724;9.898;2023-03-09T00:46:29;2.90;97.80
40516;DHT22;26216;53.724;9.898;2023-03-09T00:48:55;2.80;97.70
40516;DHT22;26216;53.724;9.898;2023-03-09T00:51:21;2.80;97.80
40516;DHT22;26216;53.724;9.898;2023-03-09T00:53:46;2.90;97.80
40516;DHT22;26216;53.724;9.898;2023-03-09T00:56:16;2.80;97.80
40516;DHT22;26216;53.724;9.898;2023-03-09T00:58:43;2.80;97.80
40516;DHT22;26216;53.724;9.898;2023-03-09T01:01:10;2.80;97.90
40516;DHT22;26216;53.724;9.898;2023-03-09T01:03:37;2.80;97.90
40516;DHT22;26216;53.724;9.898;2023-03-09T01:06:04;2.70;97.80
40516;DHT22;26216;53.724;9.898;2023-03-09T01:08:30;2.80;98.00
40516;DHT22;26216;53.724;9.898;2023-03-09T01:10:56;2.80;98.00
40516;DHT22;26216;53.724;9.898;2023-03-09T01:13:22;2.70;97.90
40516;DHT22;26216;53.724;9.898;2023-03-09T01:15:48;2.70;97.90
40516;DHT22;26216;53.724;9.898;2023-03-09T01:18:14;2.70;98.00
40516;DHT22;26216;53.724;9.898;2023-03-09T01:20:39;2.70;98.00
40516;DHT22;26216;53.724;9.898;2023-03-09T01:23:06;2.70;98.00
40516;DHT22;26216;53.724;9.898;2023-03-09T01:25:31;2.60;98.00
40516;DHT22;26216;53.724;9.898;2023-03-09T01:27:57;2.70;98.00
40516;DHT22;26216;53.724;9.898;2023-03-09T01:30:23;2.60;98.00
40516;DHT22;26216;53.724;9.898;2023-03-09T01:32:49;2.60;98.00
40516;DHT22;26216;53.724;9.898;2023-03-09T01:35:15;2.60;98.10
40516;DHT22;26216;53.724;9.898;2023-03-09T01:37:40;2.60;98.00
40516;DHT22;26216;53.724;9.898;2023-03-09T01:40:07;2.60;98.00
40516;DHT22;26216;53.724;9.898;2023-03-09T01:42:34;2.60;98.10
40516;DHT22;26216;53.724;9.898;2023-03-09T01:47:59;2.50;98.20
40516;DHT22;26216;53.724;9.898;2023-03-09T01:50:30;2.50;98.30
40516;DHT22;26216;53.724;9.898;2023-03-09T01:52:57;2.50;98.10
40516;DHT22;26216;53.724;9.898;2023-03-09T01:55:32;2.50;98.20
40516;DHT22;26216;53.724;9.898;2023-03-09T01:58:10;2.50;98.00
40516;DHT22;26216;53.724;9.898;2023-03-09T02:00:41;2.50;98.10
40516;DHT22;26216;53.724;9.898;2023-03-09T02:03:16;2.40;98.00
40516;DHT22;26216;53.724;9.898;2023-03-09T02:05:46;2.40;98.40
40516;DHT22;26216;53.724;9.898;2023-03-09T02:08:13;2.40;98.40
40516;DHT22;26216;53.724;9.898;2023-03-09T02:10:46;2.40;98.30
40516;DHT22;26216;53.724;9.898;2023-03-09T02:13:16;2.40;98.30
40516;DHT22;26216;53.724;9.898;2023-03-09T02:15:42;2.30;98.50
40516;DHT22;26216;53.724;9.898;2023-03-09T02:18:08;2.30;98.50
40516;DHT22;26216;53.724;9.898;2023-03-09T02:23:13;2.30;98.40
40516;DHT22;26216;53.724;9.898;2023-03-09T02:26:05;2.30;98.40
40516;DHT22;26216;53.724;9.898;2023-03-09T02:28:34;2.30;98.50
40516;DHT22;26216;53.724;9.898;2023-03-09T02:31:00;2.30;98.50
40516;DHT22;26216;53.724;9.898;2023-03-09T02:33:28;2.30;98.70
40516;DHT22;26216;53.724;9.898;2023-03-09T02:35:59;2.30;98.70
40516;DHT22;26216;53.724;9.898;2023-03-09T02:38:25;2.30;98.70
40516;DHT22;26216;53.724;9.898;2023-03-09T02:40:54;2.30;98.90
40516;DHT22;26216;53.724;9.898;2023-03-09T02:43:26;2.30;98.70
40516;DHT22;26216;53.724;9.898;2023-03-09T02:45:54;2.40;98.70
40516;DHT22;26216;53.724;9.898;2023-03-09T02:48:19;2.40;98.70
40516;DHT22;26216;53.724;9.898;2023-03-09T02:50:45;2.40;98.90
40516;DHT22;26216;53.724;9.898;2023-03-09T02:53:11;2.40;98.80
40516;DHT22;26216;53.724;9.898;2023-03-09T02:55:37;2.40;98.80
40516;DHT22;26216;53.724;9.898;2023-03-09T02:58:03;2.40;98.70
40516;DHT22;26216;53.724;9.898;2023-03-09T03:00:29;2.40;98.90
40516;DHT22;26216;53.724;9.898;2023-03-09T03:02:55;2.40;98.80
40516;DHT22;26216;53.724;9.898;2023-03-09T03:05:21;2.40;98.80
40516;DHT22;26216;53.724;9.898;2023-03-09T03:07:47;2.40;98.90
40516;DHT22;26216;53.724;9.898;2023-03-09T03:10:13;2.40;98.90
40516;DHT22;26216;53.724;9.898;2023-03-09T03:12:40;2.40;98.90
40516;DHT22;26216;53.724;9.898;2023-03-09T03:15:06;2.40;98.80
40516;DHT22;26216;53.724;9.898;2023-03-09T03:17:32;2.40;98.80
40516;DHT22;26216;53.724;9.898;2023-03-09T03:19:58;2.40;98.80
40516;DHT22;26216;53.724;9.898;2023-03-09T03:22:24;2.50;98.80
40516;DHT22;26216;53.724;9.898;2023-03-09T03:24:50;2.40;98.90
40516;DHT22;26216;53.724;9.898;2023-03-09T03:27:16;2.50;98.90
40516;DHT22;26216;53.724;9.898;2023-03-09T03:29:41;2.50;98.90
40516;DHT22;26216;53.724;9.898;2023-03-09T03:32:08;2.50;98.90
40516;DHT22;26216;53.724;9.898;2023-03-09T03:34:34;2.50;99.00
40516;DHT22;26216;53.724;9.898;2023-03-09T03:37:00;2.40;98.80
40516;DHT22;26216;53.724;9.898;2023-03-09T03:39:25;2.50;98.90
40516;DHT22;26216;53.724;9.898;2023-03-09T03:41:51;2.40;99.10
40516;DHT22;26216;53.724;9.898;2023-03-09T03:44:17;2.50;98.90
40516;DHT22;26216;53.724;9.898;2023-03-09T03:46:43;2.50;99.00
40516;DHT22;26216;53.724;9.898;2023-03-09T03:49:09;2.50;99.10
40516;DHT22;26216;53.724;9.898;2023-03-09T03:51:35;2.50;99.00
40516;DHT22;26216;53.724;9.898;2023-03-09T03:54:00;2.50;99.30
40516;DHT22;26216;53.724;9.898;2023-03-09T03:56:26;2.50;99.10
40516;DHT22;26216;53.724;9.898;2023-03-09T03:58:52;2.50;99.00
40516;DHT22;26216;53.724;9.898;2023-03-09T04:01:18;2.50;99.00
40516;DHT22;26216;53.724;9.898;2023-03-09T04:03:43;2.50;99.00
40516;DHT22;26216;53.724;9.898;2023-03-09T04:06:09;2.50;99.00
40516;DHT22;26216;53.724;9.898;2023-03-09T04:08:35;2.50;99.00
40516;DHT22;26216;53.724;9.898;2023-03-09T04:11:07;2.50;99.00
40516;DHT22;26216;53.724;9.898;2023-03-09T04:13:33;2.50;98.90
40516;DHT22;26216;53.724;9.898;2023-03-09T04:16:02;2.60;99.00
40516;DHT22;26216;53.724;9.898;2023-03-09T04:18:28;2.60;99.00
40516;DHT22;26216;53.724;9.898;2023-03-09T04:20:54;2.60;98.90
40516;DHT22;26216;53.724;9.898;2023-03-09T04:23:20;2.60;99.00
40516;DHT22;26216;53.724;9.898;2023-03-09T04:25:56;2.60;99.10
40516;DHT22;26216;53.724;9.898;2023-03-09T04:28:22;2.60;99.00
40516;DHT22;26216;53.724;9.898;2023-03-09T04:30:48;2.60;99.00
40516;DHT22;26216;53.724;9.898;2023-03-09T04:33:14;2.60;99.00
40516;DHT22;26216;53.724;9.898;2023-03-09T04:35:40;2.60;98.90
40516;DHT22;26216;53.724;9.898;2023-03-09T04:38:08;2.60;99.00
40516;DHT22;26216;53.724;9.898;2023-03-09T04:40:34;2.60;99.20
40516;DHT22;26216;53.724;9.898;2023-03-09T04:43:01;2.70;99.10
40516;DHT22;26216;53.724;9.898;2023-03-09T04:45:27;2.70;99.10
40516;DHT22;26216;53.724;9.898;2023-03-09T04:47:52;2.70;99.00
40516;DHT22;26216;53.724;9.898;2023-03-09T04:50:18;2.70;98.90
40516;DHT22;26216;53.724;9.898;2023-03-09T04:52:44;2.70;99.00
40516;DHT22;26216;53.724;9.898;2023-03-09T04:55:10;2.70;98.90
40516;DHT22;26216;53.724;9.898;2023-03-09T04:57:36;2.70;99.00
40516;DHT22;26216;53.724;9.898;2023-03-09T05:00:04;2.70;98.90
40516;DHT22;26216;53.724;9.898;2023-03-09T05:02:33;2.80;98.90
40516;DHT22;26216;53.724;9.898;2023-03-09T05:04:59;2.70;99.00
40516;DHT22;26216;53.724;9.898;2023-03-09T05:07:25;2.70;98.90
40516;DHT22;26216;53.724;9.898;2023-03-09T05:09:50;2.80;98.80
40516;DHT22;26216;53.724;9.898;2023-03-09T05:12:16;2.80;98.80
40516;DHT22;26216;53.724;9.898;2023-03-09T05:14:42;2.80;98.80
40516;DHT22;26216;53.724;9.898;2023-03-09T05:17:08;2.80;98.80
40516;DHT22;26216;53.724;9.898;2023-03-09T05:19:33;2.70;98.80
40516;DHT22;26216;53.724;9.898;2023-03-09T05:22:20;2.70;98.80
40516;DHT22;26216;53.724;9.898;2023-03-09T05:25:05;2.70;98.70
40516;DHT22;26216;53.724;9.898;2023-03-09T05:27:50;2.70;98.70
40516;DHT22;26216;53.724;9.898;2023-03-09T05:30:34;2.70;98.70
40516;DHT22;26216;53.724;9.898;2023-03-09T05:33:19;2.70;98.70
40516;DHT22;26216;53.724;9.898;2023-03-09T05:36:17;2.70;98.70
40516;DHT22;26216;53.724;9.898;2023-03-09T05:39:02;2.70;98.70
40516;DHT22;26216;53.724;9.898;2023-03-09T05:41:47;2.70;98.70
40516;DHT22;26216;53.724;9.898;2023-03-09T05:44:32;2.70;98.70
40516;DHT22;26216;53.724;9.898;2023-03-09T05:47:16;2.70;98.70
40516;DHT22;26216;53.724;9.898;2023-03-09T05:50:00;2.60;98.70
40516;DHT22;26216;53.724;9.898;2023-03-09T05:52:51;2.70;98.70
40516;DHT22;26216;53.724;9.898;2023-03-09T05:55:36;2.60;98.70
40516;DHT22;26216;53.724;9.898;2023-03-09T05:58:20;2.60;98.70
40516;DHT22;26216;53.724;9.898;2023-03-09T06:01:05;2.60;98.80
40516;DHT22;26216;53.724;9.898;2023-03-09T06:03:59;2.60;98.80
40516;DHT22;26216;53.724;9.898;2023-03-09T06:06:43;2.70;98.80
40516;DHT22;26216;53.724;9.898;2023-03-09T06:09:28;2.60;98.70
40516;DHT22;26216;53.724;9.898;2023-03-09T06:12:13;2.60;98.80
40516;DHT22;26216;53.724;9.898;2023-03-09T06:14:57;2.60;98.80
40516;DHT22;26216;53.724;9.898;2023-03-09T08:18:35;3.80;99.00
40516;DHT22;26216;53.724;9.898;2023-03-09T08:21:10;3.90;98.90
40516;DHT22;26216;53.724;9.898;2023-03-09T08:23:38;4.00;98.80
40516;DHT22;26216;53.724;9.898;2023-03-09T08:26:06;4.00;98.80
40516;DHT22;26216;53.724;9.898;2023-03-09T08:28:34;4.10;98.80
40516;DHT22;26216;53.724;9.898;2023-03-09T08:31:00;4.10;98.80
40516;DHT22;26216;53.724;9.898;2023-03-09T08:33:26;4.20;98.80
40516;DHT22;26216;53.724;9.898;2023-03-09T08:35:52;4.20;98.70
40516;DHT22;26216;53.724;9.898;2023-03-09T08:38:18;4.30;98.70
40516;DHT22;26216;53.724;9.898;2023-03-09T08:40:44;4.30;98.60
40516;DHT22;26216;53.724;9.898;2023-03-09T08:43:10;4.40;98.60
40516;DHT22;26216;53.724;9.898;2023-03-09T08:45:36;4.40;98.60
40516;DHT22;26216;53.724;9.898;2023-03-09T08:48:03;4.50;98.70
40516;DHT22;26216;53.724;9.898;2023-03-09T08:50:29;4.60;98.60
40516;DHT22;26216;53.724;9.898;2023-03-09T08:52:55;4.60;98.60
40516;DHT22;26216;53.724;9.898;2023-03-09T08:55:21;4.70;98.60
40516;DHT22;26216;53.724;9.898;2023-03-09T08:57:47;4.70;98.30
40516;DHT22;26216;53.724;9.898;2023-03-09T09:00:14;4.70;98.30
40516;DHT22;26216;53.724;9.898;2023-03-09T09:02:40;4.80;98.40
40516;DHT22;26216;53.724;9.898;2023-03-09T09:05:07;4.80;98.10
40516;DHT22;26216;53.724;9.898;2023-03-09T09:07:34;4.90;98.30
40516;DHT22;26216;53.724;9.898;2023-03-09T09:10:00;4.90;98.20
40516;DHT22;26216;53.724;9.898;2023-03-09T09:12:26;5.00;98.20
40516;DHT22;26216;53.724;9.898;2023-03-09T09:14:54;5.10;98.20
40516;DHT22;26216;53.724;9.898;2023-03-09T09:17:20;5.10;97.80
40516;DHT22;26216;53.724;9.898;2023-03-09T09:19:46;5.20;97.80
40516;DHT22;26216;53.724;9.898;2023-03-09T09:22:12;5.20;98.00
40516;DHT22;26216;53.724;9.898;2023-03-09T09:24:39;5.30;97.90
40516;DHT22;26216;53.724;9.898;2023-03-09T09:27:06;5.30;97.50
40516;DHT22;26216;53.724;9.898;2023-03-09T09:29:36;5.40;97.80
40516;DHT22;26216;53.724;9.898;2023-03-09T09:32:03;5.40;97.30
40516;DHT22;26216;53.724;9.898;2023-03-09T09:34:31;5.50;97.40
40516;DHT22;26216;53.724;9.898;2023-03-09T09:36:58;5.50;97.40
40516;DHT22;26216;53.724;9.898;2023-03-09T09:39:27;5.60;97.40
40516;DHT22;26216;53.724;9.898;2023-03-09T09:42:03;5.60;97.50
40516;DHT22;26216;53.724;9.898;2023-03-09T09:44:35;5.70;97.30
40516;DHT22;26216;53.724;9.898;2023-03-09T09:47:07;5.80;97.30
40516;DHT22;26216;53.724;9.898;2023-03-09T09:49:43;5.80;97.00
40516;DHT22;26216;53.724;9.898;2023-03-09T09:54:48;6.00;97.30
40516;DHT22;26216;53.724;9.898;2023-03-09T09:57:23;6.00;97.20
40516;DHT22;26216;53.724;9.898;2023-03-09T10:00:07;6.20;97.00
40516;DHT22;26216;53.724;9.898;2023-03-09T10:08:47;6.40;97.00
40516;DHT22;26216;53.724;9.898;2023-03-09T10:11:30;6.50;96.50
40516;DHT22;26216;53.724;9.898;2023-03-09T10:13:59;6.60;96.20
40516;DHT22;26216;53.724;9.898;2023-03-09T10:16:31;6.70;96.20
40516;DHT22;26216;53.724;9.898;2023-03-09T10:19:00;6.80;96.10
40516;DHT22;26216;53.724;9.898;2023-03-09T10:21:36;6.90;95.50
40516;DHT22;26216;53.724;9.898;2023-03-09T10:24:27;7.00;95.90
40516;DHT22;26216;53.724;9.898;2023-03-09T10:27:01;7.10;95.80
40516;DHT22;26216;53.724;9.898;2023-03-09T10:29:57;7.20;95.20
40516;DHT22;26216;53.724;9.898;2023-03-09T10:35:32;7.40;95.30
40516;DHT22;26216;53.724;9.898;2023-03-09T10:38:00;7.50;95.50
40516;DHT22;26216;53.724;9.898;2023-03-09T10:40:40;7.60;95.00
40516;DHT22;26216;53.724;9.898;2023-03-09T10:43:34;7.70;95.50
40516;DHT22;26216;53.724;9.898;2023-03-09T10:46:09;7.80;95.20
40516;DHT22;26216;53.724;9.898;2023-03-09T10:48:36;7.90;95.30
40516;DHT22;26216;53.724;9.898;2023-03-09T10:51:03;8.10;95.20
40516;DHT22;26216;53.724;9.898;2023-03-09T10:53:37;8.20;94.80
40516;DHT22;26216;53.724;9.898;2023-03-09T10:56:12;8.30;94.90
40516;DHT22;26216;53.724;9.898;2023-03-09T10:58:39;8.40;95.00
40516;DHT22;26216;53.724;9.898;2023-03-09T11:01:20;8.50;94.60
40516;DHT22;26216;53.724;9.898;2023-03-09T11:03:46;8.60;94.10
40516;DHT22;26216;53.724;9.898;2023-03-09T11:06:33;8.70;94.10
40516;DHT22;26216;53.724;9.898;2023-03-09T11:09:14;8.80;94.10
40516;DHT22;26216;53.724;9.898;2023-03-09T11:11:43;8.90;93.50
40516;DHT22;26216;53.724;9.898;2023-03-09T11:14:27;8.90;93.60
40516;DHT22;26216;53.724;9.898;2023-03-09T11:16:59;9.00;93.40
40516;DHT22;26216;53.724;9.898;2023-03-09T11:19:30;9.00;93.00
40516;DHT22;26216;53.724;9.898;2023-03-09T11:24:24;9.10;92.90
40516;DHT22;26216;53.724;9.898;2023-03-09T11:26:57;9.10;92.80
40516;DHT22;26216;53.724;9.898;2023-03-09T11:30:04;9.10;92.40
40516;DHT22;26216;53.724;9.898;2023-03-09T11:32:31;9.10;92.60
40516;DHT22;26216;53.724;9.898;2023-03-09T11:34:57;9.10;92.60
40516;DHT22;26216;53.724;9.898;2023-03-09T11:40:20;9.20;92.20
40516;DHT22;26216;53.724;9.898;2023-03-09T11:42:56;9.10;92.30
40516;DHT22;26216;53.724;9.898;2023-03-09T11:45:30;9.20;92.00
40516;DHT22;26216;53.724;9.898;2023-03-09T11:48:07;9.20;91.70
40516;DHT22;26216;53.724;9.898;2023-03-09T11:53:48;9.20;91.80
40516;DHT22;26216;53.724;9.898;2023-03-09T11:56:42;9.10;91.50
40516;DHT22;26216;53.724;9.898;2023-03-09T12:04:49;9.10;89.70
40516;DHT22;26216;53.724;9.898;2023-03-09T12:10:51;9.00;91.30
40516;DHT22;26216;53.724;9.898;2023-03-09T12:13:28;9.00;91.10
40516;DHT22;26216;53.724;9.898;2023-03-09T12:21:33;8.90;90.00
40516;DHT22;26216;53.724;9.898;2023-03-09T12:24:13;8.90;89.00
40516;DHT22;26216;53.724;9.898;2023-03-09T12:26:43;8.80;89.70
40516;DHT22;26216;53.724;9.898;2023-03-09T12:29:21;8.80;90.20
40516;DHT22;26216;53.724;9.898;2023-03-09T12:34:42;8.70;90.60
40516;DHT22;26216;53.724;9.898;2023-03-09T12:37:49;8.70;91.00
40516;DHT22;26216;53.724;9.898;2023-03-09T12:42:55;8.80;90.50
40516;DHT22;26216;53.724;9.898;2023-03-09T12:45:26;8.80;90.90
40516;DHT22;26216;53.724;9.898;2023-03-09T12:50:49;8.70;89.20
40516;DHT22;26216;53.724;9.898;2023-03-09T12:53:23;8.80;89.40
40516;DHT22;26216;53.724;9.898;2023-03-09T12:55:52;8.80;90.40
40516;DHT22;26216;53.724;9.898;2023-03-09T13:01:03;8.80;90.60
40516;DHT22;26216;53.724;9.898;2023-03-09T13:03:53;8.80;90.70
40516;DHT22;26216;53.724;9.898;2023-03-09T13:09:06;8.90;90.60
40516;DHT22;26216;53.724;9.898;2023-03-09T13:11:49;9.00;89.70
40516;DHT22;26216;53.724;9.898;2023-03-09T13:16:55;9.00;90.20
40516;DHT22;26216;53.724;9.898;2023-03-09T13:30:22;9.10;90.00
40516;DHT22;26216;53.724;9.898;2023-03-09T13:33:02;9.10;87.80
40516;DHT22;26216;53.724;9.898;2023-03-09T13:38:00;9.10;87.00
40516;DHT22;26216;53.724;9.898;2023-03-09T13:40:34;9.10;87.70
40516;DHT22;26216;53.724;9.898;2023-03-09T13:43:09;9.00;87.60
40516;DHT22;26216;53.724;9.898;2023-03-09T13:45:37;9.00;88.80
40516;DHT22;26216;53.724;9.898;2023-03-09T13:48:05;9.00;88.70
40516;DHT22;26216;53.724;9.898;2023-03-09T13:50:36;9.00;86.30
40516;DHT22;26216;53.724;9.898;2023-03-09T13:55:57;8.90;89.00
40516;DHT22;26216;53.724;9.898;2023-03-09T13:58:24;8.90;89.40
40516;DHT22;26216;53.724;9.898;2023-03-09T14:03:26;8.90;89.40
40516;DHT22;26216;53.724;9.898;2023-03-09T14:06:09;8.90;86.70
40516;DHT22;26216;53.724;9.898;2023-03-09T14:08:41;8.90;88.50
40516;DHT22;26216;53.724;9.898;2023-03-09T14:11:24;8.90;89.40
40516;DHT22;26216;53.724;9.898;2023-03-09T14:14:01;8.90;89.60
40516;DHT22;26216;53.724;9.898;2023-03-09T14:16:31;8.90;88.50
40516;DHT22;26216;53.724;9.898;2023-03-09T14:18:58;8.90;88.80
40516;DHT22;26216;53.724;9.898;2023-03-09T14:21:30;8.90;89.40
40516;DHT22;26216;53.724;9.898;2023-03-09T14:26:43;8.90;88.50
40516;DHT22;26216;53.724;9.898;2023-03-09T14:29:26;8.90;88.40
40516;DHT22;26216;53.724;9.898;2023-03-09T14:32:20;8.90;88.30
40516;DHT22;26216;53.724;9.898;2023-03-09T14:34:49;8.90;87.90
40516;DHT22;26216;53.724;9.898;2023-03-09T14:37:26;8.90;88.80
40516;DHT22;26216;53.724;9.898;2023-03-09T14:39:54;8.90;89.20
40516;DHT22;26216;53.724;9.898;2023-03-09T14:42:32;8.80;89.30
40516;DHT22;26216;53.724;9.898;2023-03-09T14:45:08;8.80;89.20
40516;DHT22;26216;53.724;9.898;2023-03-09T14:47:44;8.80;89.40
40516;DHT22;26216;53.724;9.898;2023-03-09T14:50:15;8.80;88.90
40516;DHT22;26216;53.724;9.898;2023-03-09T14:52:41;8.80;89.00
40516;DHT22;26216;53.724;9.898;2023-03-09T14:55:21;8.80;88.90
40516;DHT22;26216;53.724;9.898;2023-03-09T14:57:48;8.80;89.20
40516;DHT22;26216;53.724;9.898;2023-03-09T15:02:45;8.80;88.50
40516;DHT22;26216;53.724;9.898;2023-03-09T15:05:16;8.80;88.80
40516;DHT22;26216;53.724;9.898;2023-03-09T15:07:42;8.70;87.70
40516;DHT22;26216;53.724;9.898;2023-03-09T15:10:09;8.70;87.70
40516;DHT22;26216;53.724;9.898;2023-03-09T15:12:35;8.70;88.60
40516;DHT22;26216;53.724;9.898;2023-03-09T15:15:02;8.70;88.50
40516;DHT22;26216;53.724;9.898;2023-03-09T15:17:28;8.60;88.70
40516;DHT22;26216;53.724;9.898;2023-03-09T15:19:54;8.60;88.20
40516;DHT22;26216;53.724;9.898;2023-03-09T15:22:20;8.60;88.50
40516;DHT22;26216;53.724;9.898;2023-03-09T15:24:46;8.50;88.90
40516;DHT22;26216;53.724;9.898;2023-03-09T15:27:13;8.50;88.30
40516;DHT22;26216;53.724;9.898;2023-03-09T15:29:39;8.50;88.30
40516;DHT22;26216;53.724;9.898;2023-03-09T15:32:06;8.40;87.90
40516;DHT22;26216;53.724;9.898;2023-03-09T15:34:39;8.30;88.20
40516;DHT22;26216;53.724;9.898;2023-03-09T15:37:05;8.40;88.40
40516;DHT22;26216;53.724;9.898;2023-03-09T15:39:31;8.30;87.90
40516;DHT22;26216;53.724;9.898;2023-03-09T15:41:57;8.20;87.40
40516;DHT22;26216;53.724;9.898;2023-03-09T15:44:23;8.20;88.10
40516;DHT22;26216;53.724;9.898;2023-03-09T15:46:49;8.10;88.20
40516;DHT22;26216;53.724;9.898;2023-03-09T15:49:15;8.10;88.70
40516;DHT22;26216;53.724;9.898;2023-03-09T15:51:41;8.10;88.90
40516;DHT22;26216;53.724;9.898;2023-03-09T15:54:08;8.10;89.10
40516;DHT22;26216;53.724;9.898;2023-03-09T15:56:34;8.00;89.20
40516;DHT22;26216;53.724;9.898;2023-03-09T15:59:04;8.00;89.10
40516;DHT22;26216;53.724;9.898;2023-03-09T16:01:30;8.00;88.90
40516;DHT22;26216;53.724;9.898;2023-03-09T16:03:56;7.90;88.40
40516;DHT22;26216;53.724;9.898;2023-03-09T16:06:23;7.90;88.40
40516;DHT22;26216;53.724;9.898;2023-03-09T16:08:49;7.90;88.60
40516;DHT22;26216;53.724;9.898;2023-03-09T16:11:16;7.90;88.90
40516;DHT22;26216;53.724;9.898;2023-03-09T16:13:46;7.90;88.60
40516;DHT22;26216;53.724;9.898;2023-03-09T16:16:13;7.80;88.80
40516;DHT22;26216;53.724;9.898;2023-03-09T16:18:42;7.80;89.30
40516;DHT22;26216;53.724;9.898;2023-03-09T16:21:09;7.80;89.30
40516;DHT22;26216;53.724;9.898;2023-03-09T16:23:34;7.70;89.30
40516;DHT22;26216;53.724;9.898;2023-03-09T16:26:00;7.70;89.60
40516;DHT22;26216;53.724;9.898;2023-03-09T16:28:27;7.70;88.80
40516;DHT22;26216;53.724;9.898;2023-03-09T16:30:55;7.70;89.40
40516;DHT22;26216;53.724;9.898;2023-03-09T16:33:21;7.60;89.10
40516;DHT22;26216;53.724;9.898;2023-03-09T16:35:58;7.60;89.40
40516;DHT22;26216;53.724;9.898;2023-03-09T16:38:25;7.60;89.60
40516;DHT22;26216;53.724;9.898;2023-03-09T16:40:51;7.50;89.60
40516;DHT22;26216;53.724;9.898;2023-03-09T16:43:17;7.50;89.60
40516;DHT22;26216;53.724;9.898;2023-03-09T16:45:54;7.50;89.80
40516;DHT22;26216;53.724;9.898;2023-03-09T16:48:24;7.50;90.00
40516;DHT22;26216;53.724;9.898;2023-03-09T16:50:55;7.40;89.90
40516;DHT22;26216;53.724;9.898;2023-03-09T16:53:23;7.40;90.00
40516;DHT22;26216;53.724;9.898;2023-03-09T16:55:57;7.40;89.80
40516;DHT22;26216;53.724;9.898;2023-03-09T16:58:24;7.40;90.00
40516;DHT22;26216;53.724;9.898;2023-03-09T17:00:50;7.40;90.00
40516;DHT22;26216;53.724;9.898;2023-03-09T17:03:17;7.40;90.00
40516;DHT22;26216;53.724;9.898;2023-03-09T17:05:44;7.30;90.00
40516;DHT22;26216;53.724;9.898;2023-03-09T17:08:11;7.30;90.10
40516;DHT22;26216;53.724;9.898;2023-03-09T17:10:40;7.20;90.10
40516;DHT22;26216;53.724;9.898;2023-03-09T17:13:06;7.20;90.40
40516;DHT22;26216;53.724;9.898;2023-03-09T17:15:32;7.20;90.20
40516;DHT22;26216;53.724;9.898;2023-03-09T17:17:58;7.10;90.20
40516;DHT22;26216;53.724;9.898;2023-03-09T17:20:25;7.20;90.30
40516;DHT22;26216;53.724;9.898;2023-03-09T17:22:51;7.10;90.30
40516;DHT22;26216;53.724;9.898;2023-03-09T17:25:19;7.10;90.30
40516;DHT22;26216;53.724;9.898;2023-03-09T17:27:46;7.10;90.30
40516;DHT22;26216;53.724;9.898;2023-03-09T17:30:14;7.10;90.40
40516;DHT22;26216;53.724;9.898;2023-03-09T17:32:41;7.00;90.40
40516;DHT22;26216;53.724;9.898;2023-03-09T17:35:07;7.00;90.40
40516;DHT22;26216;53.724;9.898;2023-03-09T17:37:37;7.00;90.50
40516;DHT22;26216;53.724;9.898;2023-03-09T17:40:06;6.90;90.50
40516;DHT22;26216;53.724;9.898;2023-03-09T17:42:36;6.90;90.60
40516;DHT22;26216;53.724;9.898;2023-03-09T17:45:03;6.90;90.60
40516;DHT22;26216;53.724;9.898;2023-03-09T17:47:29;6.80;90.60
40516;DHT22;26216;53.724;9.898;2023-03-09T17:49:55;6.90;90.70
40516;DHT22;26216;53.724;9.898;2023-03-09T17:52:21;6.80;90.70
40516;DHT22;26216;53.724;9.898;2023-03-09T17:54:47;6.80;90.70
40516;DHT22;26216;53.724;9.898;2023-03-09T17:57:14;6.70;90.80
40516;DHT22;26216;53.724;9.898;2023-03-09T17:59:39;6.80;90.90
40516;DHT22;26216;53.724;9.898;2023-03-09T18:02:06;6.70;90.90
40516;DHT22;26216;53.724;9.898;2023-03-09T18:04:33;6.70;91.00
40516;DHT22;26216;53.724;9.898;2023-03-09T18:06:59;6.70;91.20
40516;DHT22;26216;53.724;9.898;2023-03-09T18:09:26;6.60;91.50
40516;DHT22;26216;53.724;9.898;2023-03-09T18:11:52;6.60;91.60
40516;DHT22;26216;53.724;9.898;2023-03-09T18:14:18;6.60;91.70
40516;DHT22;26216;53.724;9.898;2023-03-09T18:16:44;6.50;91.90
40516;DHT22;26216;53.724;9.898;2023-03-09T18:19:11;6.50;92.00
40516;DHT22;26216;53.724;9.898;2023-03-09T18:21:38;6.50;92.20
40516;DHT22;26216;53.724;9.898;2023-03-09T18:24:05;6.40;92.30
40516;DHT22;26216;53.724;9.898;2023-03-09T18:26:34;6.50;92.50
40516;DHT22;26216;53.724;9.898;2023-03-09T18:29:01;6.40;92.50
40516;DHT22;26216;53.724;9.898;2023-03-09T18:31:29;6.40;92.60
40516;DHT22;26216;53.724;9.898;2023-03-09T18:33:56;6.30;92.70
40516;DHT22;26216;53.724;9.898;2023-03-09T18:36:23;6.30;92.80
40516;DHT22;26216;53.724;9.898;2023-03-09T18:38:50;6.30;92.90
40516;DHT22;26216;53.724;9.898;2023-03-09T18:41:16;6.30;93.00
40516;DHT22;26216;53.724;9.898;2023-03-09T18:43:43;6.30;93.00
40516;DHT22;26216;53.724;9.898;2023-03-09T18:46:09;6.30;93.10
40516;DHT22;26216;53.724;9.898;2023-03-09T18:48:35;6.30;93.20
40516;DHT22;26216;53.724;9.898;2023-03-09T18:51:01;6.20;93.20
40516;DHT22;26216;53.724;9.898;2023-03-09T18:53:29;6.20;93.30
40516;DHT22;26216;53.724;9.898;2023-03-09T18:56:01;6.20;93.30
40516;DHT22;26216;53.724;9.898;2023-03-09T18:58:27;6.20;93.30
40516;DHT22;26216;53.724;9.898;2023-03-09T19:00:54;6.20;93.40
40516;DHT22;26216;53.724;9.898;2023-03-09T19:03:21;6.10;93.40
40516;DHT22;26216;53.724;9.898;2023-03-09T19:06:00;6.20;93.50
40516;DHT22;26216;53.724;9.898;2023-03-09T19:08:27;6.10;93.70
40516;DHT22;26216;53.724;9.898;2023-03-09T19:10:53;6.10;93.60
40516;DHT22;26216;53.724;9.898;2023-03-09T19:13:19;6.10;93.70
40516;DHT22;26216;53.724;9.898;2023-03-09T19:15:46;6.10;93.80
40516;DHT22;26216;53.724;9.898;2023-03-09T19:18:16;6.00;93.90
40516;DHT22;26216;53.724;9.898;2023-03-09T19:20:43;6.00;93.80
40516;DHT22;26216;53.724;9.898;2023-03-09T19:23:10;6.00;94.00
40516;DHT22;26216;53.724;9.898;2023-03-09T19:25:37;6.00;93.90